createdAt,value
2018-08-22T19:15:57.341Z,983.74
2018-08-22T19:16:55.475Z,983.74
2018-08-22T19:17:55.720Z,983.76
2018-08-22T19:18:55.816Z,983.75
2018-08-22T19:19:56.083Z,983.78
2018-08-22T19:20:56.252Z,983.73
2018-08-22T19:21:56.378Z,983.79
2018-08-22T19:22:56.644Z,983.76
2018-08-22T19:23:56.827Z,983.76
2018-08-22T19:24:57.025Z,983.75
2018-08-22T19:25:57.189Z,983.77
2018-08-22T19:26:57.381Z,983.82
2018-08-22T19:27:57.559Z,983.78
2018-08-22T19:28:57.889Z,983.79
2018-08-22T19:29:57.998Z,983.78
2018-08-22T19:30:58.296Z,983.78
2018-08-22T19:31:58.414Z,983.81
2018-08-22T19:32:58.611Z,983.79
2018-08-22T19:33:58.816Z,983.79
2018-08-22T19:34:59.070Z,983.80
2018-08-22T19:35:59.197Z,983.82
2018-08-22T19:36:59.492Z,983.81
2018-08-22T19:37:59.583Z,983.82
2018-08-22T19:38:59.778Z,983.84
2018-08-22T19:39:59.977Z,983.80
2018-08-22T19:41:00.189Z,983.77
2018-08-22T19:42:00.390Z,983.78
2018-08-22T19:43:00.585Z,983.77
2018-08-22T19:44:00.772Z,983.78
2018-08-22T19:45:00.983Z,983.76
2018-08-22T19:46:01.190Z,983.75
2018-08-22T19:47:01.418Z,983.75
2018-08-22T19:48:01.536Z,983.74
2018-08-22T19:49:01.863Z,983.74
2018-08-22T19:50:01.963Z,983.77
2018-08-22T19:51:02.109Z,983.77
2018-08-22T19:52:02.315Z,983.77
2018-08-22T19:53:02.494Z,983.77
2018-08-22T19:54:02.642Z,983.76
2018-08-22T19:55:02.829Z,983.75
2018-08-22T19:56:03.106Z,983.75
2018-08-22T19:57:03.424Z,983.74
2018-08-22T19:58:03.443Z,983.74
2018-08-22T19:59:03.677Z,983.71
2018-08-22T20:00:03.843Z,983.70
2018-08-22T20:01:04.826Z,983.73
2018-08-22T20:02:04.363Z,983.73
2018-08-22T20:03:04.398Z,983.71
2018-08-22T20:04:04.629Z,983.70
2018-08-22T20:05:04.839Z,983.74
2018-08-22T20:06:04.955Z,983.77
2018-08-22T20:07:05.262Z,983.74
2018-08-22T20:08:05.317Z,983.76
2018-08-22T20:09:05.564Z,983.78
2018-08-22T20:10:05.800Z,983.78
2018-08-22T20:11:05.903Z,983.78
2018-08-22T20:12:06.089Z,983.76
2018-08-22T20:13:06.444Z,983.82
2018-08-22T20:14:06.529Z,983.80
2018-08-22T20:15:06.743Z,983.82
2018-08-22T20:16:06.963Z,983.83
2018-08-22T20:17:07.100Z,983.81
2018-08-22T20:18:07.238Z,983.81
2018-08-22T20:19:07.469Z,983.79
2018-08-22T20:20:07.653Z,983.78
2018-08-22T20:21:07.826Z,983.80
2018-08-22T20:22:08.691Z,983.77
2018-08-22T20:23:08.371Z,983.76
2018-08-22T20:24:08.488Z,983.76
2018-08-22T20:25:08.503Z,983.79
2018-08-22T20:26:08.683Z,983.79
2018-08-22T20:27:09.004Z,983.79
2018-08-22T20:28:09.208Z,983.83
2018-08-22T20:29:09.349Z,983.86
2018-08-22T20:30:09.527Z,983.82
2018-08-22T20:31:09.791Z,983.84
2018-08-22T20:32:09.913Z,983.84
2018-08-22T20:33:10.019Z,983.82
2018-08-22T20:34:10.205Z,983.86
2018-08-22T20:35:10.419Z,983.83
2018-08-22T20:36:10.607Z,983.80
2018-08-22T20:37:10.796Z,983.80
2018-08-22T20:38:10.972Z,983.82
2018-08-22T20:39:11.189Z,983.80
2018-08-22T20:40:11.415Z,983.81
2018-08-22T20:41:11.688Z,983.82
2018-08-22T20:42:11.842Z,983.84
2018-08-22T20:43:11.922Z,983.82
2018-08-22T20:44:12.189Z,983.83
2018-08-22T20:45:12.369Z,983.82
2018-08-22T20:46:12.518Z,983.81
2018-08-22T20:47:12.692Z,983.79
2018-08-22T20:48:12.870Z,983.82
2018-08-22T20:49:13.061Z,983.75
